»·PEaware :: DAL744 KLAS-KLAX

DAL744 :: KLAS-KLAX

FLIGHT INFORMATION

Flight Status: Arrived
Operator:
Delta Air Lines
More flights by this operator :: More flights under this callsign
Pilot: Dean L. (8400)
Aircraft: BOEING 747-400 (WINGLETS)
(B744)
More flights by this aircraft type
Origin: KLAS McCarran Intl
United States
Destination: KLAX Los Angeles Intl
United States
More flights between these airports :: More routes between these airports
Route: BOACH8 RIKII SHTNR ANJLL4
File this flight plan on PilotEdge
Remarks: RMK / SIMBRIEF
Altitude:
(Current/Filed)
30,000ft
Speed:
(Current/Filed)
480kts
Departed: 10-May-20 04:05 PM
Arrived: 10-May-20 04:53 PM
Distance/Time
Traveled:
205nm/0:48
Distance/Time
To Go:
Arrived

Flight Plot

Page will automatically refresh every two minutes.


Map Options




Map Legend


Flown Route
Filed Route
Departure Airport
Arrival Airport
Navaid (VOR, NDB)
Fix

Horizontal Profiles

Position Reports

Time Latitude Longitude Heading Altitude Ground
Speed
10-May-20 15:51 36.079781 -115.135295 355 2128ft 0kts
10-May-20 15:51 36.079782 -115.135295 355 2128ft 0kts
10-May-20 15:53 36.079783 -115.135295 355 2128ft 0kts
10-May-20 15:53 36.079783 -115.135295 355 2128ft 0kts
10-May-20 15:54 36.079784 -115.135295 355 2128ft 0kts
10-May-20 15:55 36.079785 -115.135295 355 2128ft 0kts
10-May-20 15:56 36.079786 -115.135295 355 2128ft 0kts
10-May-20 15:57 36.079786 -115.135295 355 2128ft 0kts
10-May-20 15:58 36.079593 -115.133646 148 2128ft 10kts
10-May-20 15:59 36.077506 -115.124508 89 2128ft 40kts
10-May-20 16:00 36.077317 -115.121374 175 2128ft 0kts
10-May-20 16:01 36.077310 -115.121373 175 2128ft 0kts
10-May-20 16:02 36.077303 -115.121373 175 2128ft 0kts
10-May-20 16:03 36.077295 -115.121372 175 2128ft 0kts
10-May-20 16:04 36.076305 -115.132086 270 2128ft 130kts
10-May-20 16:05 36.076025 -115.194858 269 4755ft 175kts
10-May-20 16:06 36.064887 -115.258671 224 5552ft 235kts
10-May-20 16:07 35.996312 -115.289390 203 6884ft 275kts
10-May-20 16:08 35.920197 -115.308348 188 8371ft 287kts
10-May-20 16:09 35.844594 -115.314211 181 10478ft 317kts
10-May-20 16:10 35.785734 -115.307259 177 10932ft 375kts
10-May-20 16:11 35.677643 -115.295072 180 13957ft 398kts
10-May-20 16:12 35.566361 -115.299415 185 17027ft 416kts
10-May-20 16:13 35.456196 -115.338087 211 18960ft 419kts
10-May-20 16:14 35.390096 -115.385907 214 18999ft 418kts
10-May-20 16:15 35.291604 -115.457827 213 19000ft 418kts
10-May-20 16:16 35.191497 -115.530075 213 19000ft 418kts
10-May-20 16:17 35.097257 -115.611899 226 19000ft 414kts
10-May-20 16:18 35.019442 -115.712160 228 19233ft 416kts
10-May-20 16:19 34.938273 -115.816442 228 21974ft 431kts
10-May-20 16:20 34.853486 -115.923844 228 24305ft 447kts
10-May-20 16:21 34.768935 -116.030539 228 26128ft 465kts
10-May-20 16:22 34.678640 -116.145336 228 28239ft 467kts
10-May-20 16:23 34.589204 -116.259570 228 29920ft 464kts
10-May-20 16:24 34.501543 -116.370351 228 29996ft 464kts
10-May-20 16:25 34.417661 -116.480984 237 30006ft 426kts
10-May-20 16:26 34.363220 -116.607369 245 29997ft 424kts
10-May-20 16:27 34.312852 -116.731123 245 29995ft 413kts
10-May-20 16:28 34.262544 -116.856023 245 29996ft 414kts
10-May-20 16:29 34.212781 -116.979697 248 29950ft 413kts
10-May-20 16:30 34.178686 -117.103076 252 28107ft 401kts
10-May-20 16:31 34.144603 -117.228108 252 26163ft 387kts
10-May-20 16:32 34.112124 -117.345550 252 24260ft 375kts
10-May-20 16:33 34.084075 -117.454989 254 22460ft 364kts
10-May-20 16:34 34.061023 -117.567501 259 20610ft 353kts
10-May-20 16:35 34.043160 -117.677200 259 18798ft 343kts
10-May-20 16:36 34.027120 -117.772930 259 18138ft 302kts
10-May-20 16:37 33.996501 -117.861925 251 16892ft 277kts
10-May-20 16:38 33.980787 -117.940989 264 14968ft 291kts
10-May-20 16:39 33.973182 -118.027099 263 12587ft 291kts
10-May-20 16:40 33.963629 -118.123052 263 9790ft 285kts
10-May-20 16:41 33.953556 -118.211744 244 7088ft 282kts
10-May-20 16:42 33.890107 -118.225699 139 5386ft 255kts
10-May-20 16:43 33.883925 -118.155395 82 5002ft 207kts
10-May-20 16:44 33.890372 -118.088675 80 4996ft 206kts
10-May-20 16:45 33.927082 -118.069494 314 4665ft 186kts
10-May-20 16:46 33.946487 -118.122701 291 3822ft 178kts
10-May-20 16:47 33.959761 -118.177715 269 2756ft 185kts
10-May-20 16:48 33.952222 -118.237753 264 2483ft 181kts
10-May-20 16:49 33.946752 -118.290813 264 1614ft 163kts
10-May-20 16:50 33.941027 -118.344726 265 778ft 161kts
10-May-20 16:51 33.936033 -118.396963 263 139ft 138kts
10-May-20 16:52 33.935180 -118.411419 294 139ft 5kts
10-May-20 16:53 33.935488 -118.412163 302 139ft 0kts
10-May-20 16:54 33.938652 -118.412733 6 139ft 0kts
10-May-20 16:55 33.938660 -118.412732 6 139ft 0kts

Navigation Log

Ident Type
Flight plan parsing failed, navigation log unavailable